Time;durP1;ratioP1;P1;durP2;ratioP2;P2;SDS_P1;SDS_P2;PMS_P1;PMS_P2;Temp;Humidity;BMP_temperature;BMP_pressure;BME280_temperature;BME280_humidity;BME280_pressure;Samples;Min_cycle;Max_cycle;Signal;HPM_P1;HPM_P2
2021/09/29 00:01:00;;;;;;;4.30;2.80;;;;;21.20;100655.00;;;;2095273;28;20215;-57
2021/09/29 00:02:00;;;;;;;3.83;2.77;;;;;21.20;100655.00;;;;2095288;28;20208;-55
2021/09/29 00:03:00;;;;;;;3.13;2.63;;;;;21.20;100658.00;;;;2094312;28;20223;-57
2021/09/29 00:04:01;;;;;;;3.87;2.87;;;;;21.20;100650.00;;;;2090186;28;20232;-56
2021/09/29 00:05:02;;;;;;;3.37;2.53;;;;;21.20;100661.00;;;;2089826;28;20223;-58
2021/09/29 00:06:04;;;;;;;4.57;2.80;;;;;21.20;100651.00;;;;2087157;28;20334;-57
2021/09/29 00:07:04;;;;;;;4.03;2.40;;;;;21.20;100650.00;;;;2086731;28;20271;-54
2021/09/29 00:08:06;;;;;;;3.07;2.20;;;;;21.20;100646.00;;;;2086427;28;20677;-57
2021/09/29 00:09:07;;;;;;;4.07;2.75;;;;;21.20;100649.00;;;;2085293;28;20251;-54
2021/09/29 00:10:07;;;;;;;3.50;2.50;;;;;21.20;100652.00;;;;2083587;28;20219;-57
2021/09/29 00:11:08;;;;;;;3.73;2.30;;;;;21.20;100653.00;;;;2086555;28;20220;-54
2021/09/29 00:12:08;;;;;;;3.87;2.83;;;;;21.20;100649.00;;;;2087136;28;20550;-56
2021/09/29 00:13:09;;;;;;;2.87;2.43;;;;;21.20;100652.00;;;;2086267;28;20274;-57
2021/09/29 00:14:10;;;;;;;2.80;2.43;;;;;21.20;100648.00;;;;2086534;28;20213;-56
2021/09/29 00:15:13;;;;;;;3.73;2.37;;;;;21.30;100649.00;;;;2086349;28;20212;-57
2021/09/29 00:16:14;;;;;;;2.80;2.20;;;;;21.20;100645.00;;;;2080077;28;20213;-57
2021/09/29 00:17:14;;;;;;;5.07;2.80;;;;;21.20;100650.00;;;;2084715;28;20220;-56
2021/09/29 00:18:15;;;;;;;2.30;2.00;;;;;21.20;100649.00;;;;2086590;28;20205;-56
2021/09/29 00:19:15;;;;;;;2.70;2.33;;;;;21.20;100645.00;;;;2085521;28;20213;-57
2021/09/29 00:20:16;;;;;;;3.77;2.27;;;;;21.20;100650.00;;;;2086585;28;20220;-57
2021/09/29 00:21:16;;;;;;;2.30;2.07;;;;;21.20;100642.00;;;;2086624;28;20224;-56
2021/09/29 00:22:17;;;;;;;2.87;1.77;;;;;21.20;100647.00;;;;2090501;28;20287;-57
2021/09/29 00:23:17;;;;;;;2.37;1.57;;;;;21.20;100641.00;;;;2082652;28;20212;-55
2021/09/29 00:24:17;;;;;;;3.80;2.20;;;;;21.20;100642.00;;;;2086997;28;20217;-54
2021/09/29 00:25:18;;;;;;;3.00;2.20;;;;;21.20;100639.00;;;;2086812;28;20717;-55
2021/09/29 00:26:18;;;;;;;4.23;2.30;;;;;21.20;100642.00;;;;2086791;28;20772;-57
2021/09/29 00:27:18;;;;;;;2.70;2.10;;;;;21.20;100607.00;;;;2086769;28;20308;-56
2021/09/29 00:28:19;;;;;;;3.40;2.20;;;;;21.20;100633.00;;;;2093960;28;20619;-56
2021/09/29 00:29:21;;;;;;;2.00;1.80;;;;;21.20;100632.00;;;;2093885;28;20232;-56
2021/09/29 00:30:21;;;;;;;2.58;1.90;;;;;21.20;100632.00;;;;2086602;28;20284;-57
2021/09/29 00:32:31;;;;;;;2.65;1.88;;;;;21.20;100625.00;;;;2095069;28;20239;-56
2021/09/29 00:33:35;;;;;;;2.87;1.87;;;;;21.20;100627.00;;;;2091215;28;20220;-57
2021/09/29 00:34:39;;;;;;;2.92;2.10;;;;;21.20;100633.00;;;;2089426;28;20471;-55
2021/09/29 00:35:39;;;;;;;2.70;1.90;;;;;21.20;100620.00;;;;2085259;28;20228;-57
2021/09/29 00:36:42;;;;;;;2.10;1.60;;;;;21.20;100619.00;;;;2086466;28;20220;-55
2021/09/29 00:37:43;;;;;;;2.70;1.77;;;;;21.20;100620.00;;;;2086701;28;20235;-56
2021/09/29 00:38:43;;;;;;;2.70;1.73;;;;;21.20;100616.00;;;;2084203;28;20256;-55
2021/09/29 00:39:44;;;;;;;4.07;2.20;;;;;21.20;100615.00;;;;2084898;28;20273;-56
2021/09/29 00:40:44;;;;;;;3.42;2.00;;;;;21.20;100615.00;;;;2094225;28;20681;-55
2021/09/29 00:41:46;;;;;;;3.63;1.83;;;;;21.20;100611.00;;;;2094734;28;20212;-54
2021/09/29 00:42:46;;;;;;;2.63;1.73;;;;;21.20;100615.00;;;;2095988;28;20209;-57
2021/09/29 00:43:46;;;;;;;2.50;1.90;;;;;21.20;100613.00;;;;2096383;28;20239;-57
2021/09/29 00:44:47;;;;;;;3.10;2.00;;;;;21.20;100620.00;;;;2095950;28;20274;-57
2021/09/29 00:45:47;;;;;;;3.43;2.60;;;;;21.20;100617.00;;;;2095997;28;20261;-57
2021/09/29 00:46:47;;;;;;;1.77;1.67;;;;;21.20;100607.00;;;;2096191;28;20212;-55
2021/09/29 00:47:48;;;;;;;2.47;1.97;;;;;21.20;100606.00;;;;2095461;28;20222;-55
2021/09/29 00:48:48;;;;;;;2.70;1.63;;;;;21.20;100625.00;;;;2095234;28;20215;-55
2021/09/29 00:49:48;;;;;;;2.77;2.10;;;;;21.20;100612.00;;;;2095726;28;20220;-55
2021/09/29 00:50:49;;;;;;;2.43;1.80;;;;;21.20;100609.00;;;;2095854;28;20712;-57
2021/09/29 00:51:50;;;;;;;1.73;1.63;;;;;21.20;100605.00;;;;2096171;28;20208;-57
2021/09/29 00:52:51;;;;;;;2.10;1.90;;;;;21.20;100607.00;;;;2095133;28;20204;-57
2021/09/29 00:53:52;;;;;;;3.63;2.23;;;;;21.20;100600.00;;;;2095463;28;20926;-56
2021/09/29 00:54:54;;;;;;;2.78;1.73;;;;;21.20;100600.00;;;;2095624;28;20231;-55
2021/09/29 00:55:55;;;;;;;2.95;2.10;;;;;21.20;100595.00;;;;2095449;28;20204;-57
2021/09/29 00:56:56;;;;;;;2.00;1.63;;;;;21.20;100602.00;;;;2083717;28;20209;-59
2021/09/29 00:57:57;;;;;;;3.85;1.67;;;;;21.20;100599.00;;;;2087010;28;20690;-57
2021/09/29 00:58:58;;;;;;;1.63;1.40;;;;;21.20;100602.00;;;;2094375;28;20213;-55
2021/09/29 00:59:59;;;;;;;3.30;1.93;;;;;21.20;100594.00;;;;2086761;28;20232;-54
2021/09/29 01:00:59;;;;;;;2.60;1.55;;;;;21.20;100601.00;;;;2101922;28;20230;-57
2021/09/29 01:02:00;;;;;;;4.63;1.40;;;;;21.20;100592.00;;;;2103498;28;20665;-56
2021/09/29 01:03:01;;;;;;;2.20;1.75;;;;;21.20;100590.00;;;;2093742;28;20282;-57
2021/09/29 01:04:02;;;;;;;2.20;1.60;;;;;21.20;100588.00;;;;2090367;28;20351;-57
2021/09/29 01:05:04;;;;;;;2.20;1.60;;;;;21.20;100588.00;;;;2086437;28;21056;-55
2021/09/29 01:06:11;;;;;;;2.20;1.58;;;;;21.20;100577.00;;;;2091257;28;20216;-54
2021/09/29 01:07:24;;;;;;;3.08;1.52;;;;;21.20;100580.00;;;;2094770;28;20724;-57
2021/09/29 01:08:57;;;;;;;2.00;1.45;;;;;21.20;100592.00;;;;2094171;28;20295;-54
2021/09/29 01:10:14;;;;;;;2.97;1.60;;;;;21.20;100586.00;;;;2069468;28;20214;-55
2021/09/29 01:11:17;;;;;;;1.70;1.40;;;;;21.20;100583.00;;;;2075496;28;20257;-55
2021/09/29 01:12:30;;;;;;;2.50;1.60;;;;;21.20;100579.00;;;;2095637;28;20315;-56
2021/09/29 01:13:35;;;;;;;5.28;1.90;;;;;21.20;100576.00;;;;2094659;28;20754;-57
2021/09/29 01:14:42;;;;;;;2.70;1.30;;;;;21.20;100583.00;;;;2095286;28;20216;-57
2021/09/29 01:15:49;;;;;;;1.83;1.52;;;;;21.20;100576.00;;;;2095188;28;20212;-56
2021/09/29 01:16:49;;;;;;;2.47;1.65;;;;;21.20;100574.00;;;;2094447;28;20216;-57
2021/09/29 01:17:51;;;;;;;2.50;1.63;;;;;21.20;100570.00;;;;2095040;28;20766;-57
2021/09/29 01:18:56;;;;;;;2.47;1.85;;;;;21.20;100573.00;;;;2093319;28;20212;-56
2021/09/29 01:20:22;;;;;;;2.03;1.30;;;;;21.20;100574.00;;;;2095003;28;20220;-57
2021/09/29 01:21:22;;;;;;;2.13;1.40;;;;;21.20;100569.00;;;;2094844;28;20261;-56
2021/09/29 01:22:31;;;;;;;2.33;1.53;;;;;21.20;100579.00;;;;2086531;28;20701;-57
2021/09/29 01:23:45;;;;;;;2.85;1.60;;;;;21.20;100554.00;;;;2079648;28;20244;-57
2021/09/29 01:24:54;;;;;;;1.90;1.50;;;;;21.20;100564.00;;;;2090015;28;20213;-55
2021/09/29 01:25:57;;;;;;;2.67;1.83;;;;;21.20;100558.00;;;;2094887;28;20715;-57
2021/09/29 01:26:58;;;;;;;3.67;2.00;;;;;21.20;100563.00;;;;2095079;28;20224;-55
2021/09/29 01:27:58;;;;;;;2.63;1.60;;;;;21.10;100561.00;;;;2095518;28;20323;-55
2021/09/29 01:29:06;;;;;;;2.83;1.30;;;;;21.20;100566.00;;;;2091657;28;20223;-60
2021/09/29 01:30:07;;;;;;;1.92;1.20;;;;;21.20;100563.00;;;;2091946;28;20617;-57
2021/09/29 01:31:07;;;;;;;1.52;1.13;;;;;21.20;100560.00;;;;2095233;28;20322;-55
2021/09/29 01:32:08;;;;;;;2.07;1.43;;;;;21.20;100556.00;;;;2095235;28;20217;-56
2021/09/29 01:33:09;;;;;;;2.20;1.40;;;;;21.20;100554.00;;;;2094489;28;20270;-55
2021/09/29 01:34:09;;;;;;;1.95;1.27;;;;;21.20;100544.00;;;;2078728;28;20275;-55
2021/09/29 01:35:10;;;;;;;3.47;1.70;;;;;21.20;100550.00;;;;2078002;28;20696;-55
2021/09/29 01:36:11;;;;;;;2.23;1.37;;;;;21.20;100542.00;;;;2092498;28;20251;-56
2021/09/29 01:37:12;;;;;;;1.98;1.40;;;;;21.20;100550.00;;;;2087388;28;20200;-55
2021/09/29 01:38:12;;;;;;;2.30;1.40;;;;;21.20;100545.00;;;;2093948;28;20712;-57
2021/09/29 01:39:16;;;;;;;2.70;1.43;;;;;21.20;100545.00;;;;2093812;28;20216;-57
2021/09/29 01:40:16;;;;;;;1.92;1.20;;;;;21.20;100544.00;;;;2094514;28;20307;-56
2021/09/29 01:41:17;;;;;;;1.70;1.07;;;;;21.20;100540.00;;;;2091383;28;20216;-56
2021/09/29 01:42:17;;;;;;;1.90;1.10;;;;;21.20;100541.00;;;;2095513;28;20219;-57
2021/09/29 01:43:18;;;;;;;2.83;1.63;;;;;21.20;100541.00;;;;2095565;28;20322;-54
2021/09/29 01:44:18;;;;;;;1.75;1.40;;;;;21.20;100534.00;;;;2091435;28;20220;-56
2021/09/29 01:45:19;;;;;;;2.03;1.23;;;;;21.20;100538.00;;;;2103541;28;20219;-56
2021/09/29 01:46:20;;;;;;;2.40;1.40;;;;;21.20;100535.00;;;;2090296;28;20270;-57
2021/09/29 01:47:20;;;;;;;2.10;1.50;;;;;21.20;100530.00;;;;2086980;28;20209;-56
2021/09/29 01:48:20;;;;;;;4.70;1.43;;;;;21.20;100536.00;;;;2087408;28;20460;-57
2021/09/29 01:49:24;;;;;;;1.37;1.03;;;;;21.20;100530.00;;;;2085851;28;20733;-57
2021/09/29 01:50:26;;;;;;;1.75;1.10;;;;;21.20;100529.00;;;;2087281;28;20363;-56
2021/09/29 01:51:27;;;;;;;4.07;1.50;;;;;21.10;100516.00;;;;2086529;28;20217;-57
2021/09/29 01:52:29;;;;;;;2.13;1.40;;;;;21.20;100520.00;;;;2087119;28;20216;-57
2021/09/29 01:53:31;;;;;;;2.22;1.35;;;;;21.10;100515.00;;;;2089729;28;20227;-55
2021/09/29 01:54:32;;;;;;;2.20;1.27;;;;;21.10;100512.00;;;;2095333;28;20200;-54
2021/09/29 01:55:32;;;;;;;3.37;1.20;;;;;21.10;100515.00;;;;2095387;28;20205;-60
2021/09/29 01:56:33;;;;;;;2.47;1.20;;;;;21.10;100516.00;;;;2087165;28;20283;-59
2021/09/29 01:57:36;;;;;;;1.57;1.10;;;;;21.10;100515.00;;;;2078415;28;20241;-58
2021/09/29 01:58:37;;;;;;;1.65;1.20;;;;;21.10;100511.00;;;;2079030;28;20264;-57
2021/09/29 01:59:37;;;;;;;1.53;1.20;;;;;21.10;100509.00;;;;2084049;28;20213;-57
2021/09/29 02:00:40;;;;;;;2.00;1.27;;;;;21.10;100507.00;;;;2088320;28;20757;-57
2021/09/29 02:01:41;;;;;;;2.20;1.10;;;;;21.10;100507.00;;;;2086981;28;20296;-56
2021/09/29 02:02:42;;;;;;;2.50;1.27;;;;;21.10;100503.00;;;;2087283;28;20209;-57
2021/09/29 02:03:45;;;;;;;1.77;1.20;;;;;21.10;100499.00;;;;2090952;28;20455;-56
2021/09/29 02:04:47;;;;;;;2.20;0.98;;;;;21.10;100495.00;;;;2080917;28;20296;-56
2021/09/29 02:05:48;;;;;;;1.77;1.20;;;;;21.10;100498.00;;;;2078610;28;20213;-57
2021/09/29 02:06:52;;;;;;;1.55;1.20;;;;;21.10;100497.00;;;;2087450;28;20900;-54
2021/09/29 02:07:53;;;;;;;1.95;1.38;;;;;21.10;100493.00;;;;2087112;28;20584;-57
2021/09/29 02:08:53;;;;;;;4.10;1.33;;;;;21.10;100491.00;;;;2077586;28;20217;-58
2021/09/29 02:09:53;;;;;;;1.53;1.27;;;;;21.10;100494.00;;;;2075277;28;20264;-57
2021/09/29 02:10:54;;;;;;;2.10;1.20;;;;;21.10;100490.00;;;;2095127;28;20257;-57
2021/09/29 02:11:55;;;;;;;1.30;1.00;;;;;21.10;100488.00;;;;2095108;28;20216;-57
2021/09/29 02:12:56;;;;;;;2.28;1.42;;;;;21.20;100481.00;;;;2094950;28;20212;-56
2021/09/29 02:13:57;;;;;;;1.20;0.90;;;;;21.20;100486.00;;;;2095800;28;20208;-56
2021/09/29 02:14:57;;;;;;;2.15;1.23;;;;;21.10;100485.00;;;;2095720;28;20299;-54
2021/09/29 02:15:58;;;;;;;2.50;1.20;;;;;21.10;100488.00;;;;2095900;28;20216;-55
2021/09/29 02:16:59;;;;;;;2.27;1.10;;;;;21.10;100487.00;;;;2095656;28;20270;-54
2021/09/29 02:17:59;;;;;;;1.80;1.00;;;;;21.10;100487.00;;;;2095583;28;20328;-55
2021/09/29 02:18:59;;;;;;;2.03;1.23;;;;;21.10;100491.00;;;;2094419;28;20272;-56
2021/09/29 02:20:00;;;;;;;1.10;1.00;;;;;21.10;100476.00;;;;2094838;28;20311;-57
2021/09/29 02:21:00;;;;;;;2.87;1.40;;;;;21.20;100475.00;;;;2092749;28;20220;-56
2021/09/29 02:22:00;;;;;;;1.60;0.90;;;;;21.20;100485.00;;;;2086685;28;20213;-56
2021/09/29 02:23:02;;;;;;;2.53;1.30;;;;;21.20;100483.00;;;;2086801;28;20212;-55
2021/09/29 02:24:03;;;;;;;2.05;1.25;;;;;21.10;100481.00;;;;2086854;28;20209;-57
2021/09/29 02:25:04;;;;;;;1.10;0.95;;;;;21.20;100482.00;;;;2086765;28;20240;-56
2021/09/29 02:26:05;;;;;;;1.95;1.02;;;;;21.10;100483.00;;;;2078616;28;20300;-55
2021/09/29 02:27:05;;;;;;;1.80;1.33;;;;;21.10;100480.00;;;;2086707;28;20221;-56
2021/09/29 02:28:06;;;;;;;4.23;1.30;;;;;21.10;100478.00;;;;2087349;28;20217;-56
2021/09/29 02:29:07;;;;;;;2.50;1.00;;;;;21.10;100474.00;;;;2086314;28;20219;-57
2021/09/29 02:30:09;;;;;;;1.73;1.10;;;;;21.20;100479.00;;;;2086897;28;20213;-56
2021/09/29 02:31:10;;;;;;;1.98;0.93;;;;;21.10;100478.00;;;;2086256;28;20467;-57
2021/09/29 02:32:10;;;;;;;1.97;0.87;;;;;21.10;100478.00;;;;2086368;28;20771;-55
2021/09/29 02:33:11;;;;;;;1.87;1.10;;;;;21.10;100476.00;;;;2091188;28;20818;-57
2021/09/29 02:34:11;;;;;;;1.73;1.07;;;;;21.10;100481.00;;;;2089483;28;20261;-56
2021/09/29 02:35:12;;;;;;;2.43;1.10;;;;;21.20;100475.00;;;;2089099;28;20204;-55
2021/09/29 02:36:12;;;;;;;2.50;1.27;;;;;21.20;100480.00;;;;2087439;28;20701;-56
2021/09/29 02:37:12;;;;;;;1.50;1.07;;;;;21.10;100480.00;;;;2087240;28;20211;-56
2021/09/29 02:38:13;;;;;;;1.90;1.40;;;;;21.10;100465.00;;;;2087503;28;20212;-57
2021/09/29 02:39:13;;;;;;;2.43;1.13;;;;;21.10;100484.00;;;;2089319;28;20208;-57
2021/09/29 02:40:15;;;;;;;1.77;1.10;;;;;21.10;100475.00;;;;2095280;28;20242;-57
2021/09/29 02:41:16;;;;;;;2.25;1.13;;;;;21.10;100476.00;;;;2095452;28;20295;-55
2021/09/29 02:42:17;;;;;;;1.70;1.10;;;;;21.10;100468.00;;;;2095403;28;20216;-56
2021/09/29 02:43:18;;;;;;;2.35;1.15;;;;;21.10;100470.00;;;;2095386;28;20986;-58
2021/09/29 02:44:18;;;;;;;1.73;1.03;;;;;21.10;100475.00;;;;2095361;28;20208;-56
2021/09/29 02:45:19;;;;;;;2.53;1.20;;;;;21.10;100472.00;;;;2095528;28;20447;-56
2021/09/29 02:46:19;;;;;;;1.13;0.90;;;;;21.10;100466.00;;;;2095631;28;20315;-55
2021/09/29 02:47:19;;;;;;;1.93;0.80;;;;;21.20;100462.00;;;;2095337;28;20713;-57
2021/09/29 02:48:20;;;;;;;1.30;1.00;;;;;21.20;100471.00;;;;2095481;28;20212;-55
2021/09/29 02:49:20;;;;;;;1.70;1.10;;;;;21.20;100468.00;;;;2094173;28;20196;-56
2021/09/29 02:50:20;;;;;;;2.03;1.47;;;;;21.20;100469.00;;;;2095464;28;20200;-57
2021/09/29 02:51:21;;;;;;;1.40;0.80;;;;;21.20;100472.00;;;;2095355;28;20247;-57
2021/09/29 02:52:21;;;;;;;1.87;1.30;;;;;21.20;100472.00;;;;2095394;28;20704;-57
2021/09/29 02:53:22;;;;;;;1.73;1.10;;;;;21.20;100459.00;;;;2095408;28;20196;-57
2021/09/29 02:54:22;;;;;;;1.90;1.23;;;;;21.20;100459.00;;;;2095599;28;20208;-55
2021/09/29 02:55:23;;;;;;;2.07;1.00;;;;;21.10;100462.00;;;;2095551;28;20762;-56
2021/09/29 02:56:23;;;;;;;1.60;1.10;;;;;21.10;100457.00;;;;2095423;28;20204;-57
2021/09/29 02:57:24;;;;;;;2.03;0.90;;;;;21.10;100459.00;;;;2094962;28;20641;-55
2021/09/29 02:58:24;;;;;;;2.00;1.10;;;;;21.10;100454.00;;;;2090422;28;20204;-56
2021/09/29 02:59:25;;;;;;;1.10;0.80;;;;;21.10;100460.00;;;;2087029;28;20210;-57
2021/09/29 03:00:26;;;;;;;1.63;1.30;;;;;21.10;100457.00;;;;2095122;28;20212;-54
2021/09/29 03:01:27;;;;;;;3.03;1.20;;;;;21.10;100459.00;;;;2095164;28;21181;-56
2021/09/29 03:02:27;;;;;;;2.57;1.20;;;;;21.10;100454.00;;;;2095343;28;20349;-57
2021/09/29 03:03:27;;;;;;;1.33;0.97;;;;;21.10;100460.00;;;;2090960;28;20694;-54
2021/09/29 03:04:28;;;;;;;1.33;0.83;;;;;21.10;100464.00;;;;2088521;28;20220;-56
2021/09/29 03:05:28;;;;;;;3.00;1.13;;;;;21.10;100452.00;;;;2086479;28;20247;-55
2021/09/29 03:06:28;;;;;;;1.87;1.10;;;;;21.10;100454.00;;;;2084768;28;20330;-54
2021/09/29 03:07:29;;;;;;;2.57;1.30;;;;;21.10;100457.00;;;;2090658;28;20205;-54
2021/09/29 03:08:30;;;;;;;1.80;1.07;;;;;21.10;100460.00;;;;2089673;28;20225;-55
2021/09/29 03:09:30;;;;;;;2.43;1.07;;;;;21.10;100454.00;;;;2087938;28;20212;-57
2021/09/29 03:10:31;;;;;;;1.10;1.00;;;;;21.10;100455.00;;;;2085954;28;20453;-55
2021/09/29 03:11:33;;;;;;;2.47;1.30;;;;;21.10;100452.00;;;;2086554;28;20217;-57
2021/09/29 03:12:34;;;;;;;1.90;1.00;;;;;21.10;100445.00;;;;2078342;28;20511;-57
2021/09/29 03:13:34;;;;;;;1.67;1.17;;;;;21.10;100451.00;;;;2077588;28;20784;-58
2021/09/29 03:14:35;;;;;;;1.60;1.10;;;;;21.10;100455.00;;;;2090380;28;20216;-55
2021/09/29 03:15:35;;;;;;;1.60;0.90;;;;;21.10;100453.00;;;;2095242;28;20216;-56
2021/09/29 03:16:36;;;;;;;2.47;1.03;;;;;21.10;100446.00;;;;2095375;28;20208;-56
2021/09/29 03:17:36;;;;;;;1.37;0.90;;;;;21.10;100453.00;;;;2094988;28;20215;-56
2021/09/29 03:18:37;;;;;;;2.30;0.90;;;;;21.10;100443.00;;;;2095293;28;20223;-57
2021/09/29 03:19:37;;;;;;;2.17;1.23;;;;;21.10;100450.00;;;;2093952;28;20227;-54
2021/09/29 03:20:38;;;;;;;2.17;1.10;;;;;21.10;100443.00;;;;2095462;28;20216;-54
2021/09/29 03:21:39;;;;;;;3.57;1.07;;;;;21.10;100449.00;;;;2095316;28;20923;-57
2021/09/29 03:22:39;;;;;;;1.40;1.08;;;;;21.10;100449.00;;;;2095007;28;20273;-55
2021/09/29 03:23:40;;;;;;;2.53;1.33;;;;;21.10;100446.00;;;;2095210;28;20288;-55
2021/09/29 03:24:40;;;;;;;2.60;1.10;;;;;21.10;100448.00;;;;2093178;28;20215;-57
2021/09/29 03:25:41;;;;;;;2.53;1.37;;;;;21.10;100451.00;;;;2094034;28;20234;-55
2021/09/29 03:26:42;;;;;;;1.97;1.00;;;;;21.10;100445.00;;;;2094216;28;20454;-57
2021/09/29 03:27:43;;;;;;;1.65;1.13;;;;;21.10;100443.00;;;;2094282;28;20247;-55
2021/09/29 03:28:44;;;;;;;2.90;1.20;;;;;21.10;100450.00;;;;2093530;28;20554;-54
2021/09/29 03:29:45;;;;;;;1.90;1.10;;;;;21.10;100446.00;;;;2094006;28;20216;-56
2021/09/29 03:30:45;;;;;;;1.40;1.03;;;;;21.10;100440.00;;;;2094516;28;20216;-56
2021/09/29 03:31:46;;;;;;;2.40;1.13;;;;;21.10;100451.00;;;;2093976;28;20223;-60
2021/09/29 03:32:46;;;;;;;2.87;1.03;;;;;21.10;100444.00;;;;2094746;28;20224;-56
2021/09/29 03:33:46;;;;;;;2.17;1.17;;;;;21.10;100440.00;;;;2094744;28;20289;-56
2021/09/29 03:34:47;;;;;;;1.07;0.97;;;;;21.10;100448.00;;;;2095110;28;21172;-57
2021/09/29 03:35:47;;;;;;;2.27;1.20;;;;;21.10;100439.00;;;;2094771;28;20278;-54
2021/09/29 03:36:48;;;;;;;1.70;1.13;;;;;21.10;100437.00;;;;2094815;28;20553;-55
2021/09/29 03:37:48;;;;;;;1.17;0.90;;;;;21.10;100444.00;;;;2086827;28;20213;-55
2021/09/29 03:38:49;;;;;;;1.50;1.23;;;;;21.10;100434.00;;;;2084055;28;20233;-55
2021/09/29 03:39:49;;;;;;;1.73;1.50;;;;;21.10;100409.00;;;;2090406;28;20209;-55
2021/09/29 03:40:50;;;;;;;1.03;0.90;;;;;21.10;100432.00;;;;2085670;28;20685;-55
2021/09/29 03:41:50;;;;;;;1.90;1.07;;;;;21.10;100433.00;;;;2086392;28;20753;-54
2021/09/29 03:42:50;;;;;;;1.90;1.00;;;;;21.10;100427.00;;;;2086605;28;20295;-54
2021/09/29 03:43:51;;;;;;;2.13;1.10;;;;;21.10;100431.00;;;;2085386;28;20591;-56
2021/09/29 03:44:52;;;;;;;2.03;1.00;;;;;21.10;100438.00;;;;2086099;28;20274;-56
2021/09/29 03:45:52;;;;;;;1.40;1.30;;;;;21.10;100427.00;;;;2080155;28;20227;-55
2021/09/29 03:46:53;;;;;;;1.53;1.00;;;;;21.10;100435.00;;;;2093980;28;20291;-56
2021/09/29 03:47:53;;;;;;;2.10;0.87;;;;;21.10;100422.00;;;;2097206;28;20716;-57
2021/09/29 03:48:54;;;;;;;1.53;1.00;;;;;21.10;100426.00;;;;2089624;28;20215;-55
2021/09/29 03:49:54;;;;;;;1.30;0.90;;;;;21.10;100415.00;;;;2094470;28;20219;-55
2021/09/29 03:50:54;;;;;;;1.43;0.83;;;;;21.10;100426.00;;;;2094531;28;20297;-57
2021/09/29 03:51:55;;;;;;;1.50;1.20;;;;;21.10;100421.00;;;;2094058;28;20212;-57
2021/09/29 03:52:55;;;;;;;1.40;1.20;;;;;21.10;100425.00;;;;2094987;28;20269;-57
2021/09/29 03:53:55;;;;;;;2.20;1.10;;;;;21.10;100431.00;;;;2095006;28;20750;-57
2021/09/29 03:54:56;;;;;;;2.70;1.20;;;;;21.10;100426.00;;;;2093704;28;20591;-57
2021/09/29 03:55:56;;;;;;;1.97;1.30;;;;;21.10;100426.00;;;;2094070;28;20296;-55
2021/09/29 03:56:56;;;;;;;1.80;1.10;;;;;21.10;100423.00;;;;2086736;28;20219;-56
2021/09/29 03:57:57;;;;;;;1.20;1.00;;;;;21.10;100419.00;;;;2086415;28;20213;-55
2021/09/29 03:58:57;;;;;;;1.43;1.17;;;;;21.10;100415.00;;;;2085175;28;20204;-57
2021/09/29 03:59:57;;;;;;;1.57;0.87;;;;;21.00;100410.00;;;;2086284;28;20247;-57
2021/09/29 04:00:58;;;;;;;1.37;0.90;;;;;20.90;100419.00;;;;2086972;28;20223;-55
2021/09/29 04:01:59;;;;;;;1.23;1.10;;;;;21.00;100410.00;;;;2085560;28;20217;-57
2021/09/29 04:02:59;;;;;;;1.20;1.10;;;;;21.10;100415.00;;;;2086735;28;20217;-57
2021/09/29 04:03:59;;;;;;;2.50;1.03;;;;;21.00;100417.00;;;;2086553;28;20308;-57
2021/09/29 04:05:00;;;;;;;1.43;1.00;;;;;21.10;100415.00;;;;2086780;28;20266;-57
2021/09/29 04:06:00;;;;;;;1.63;1.07;;;;;21.10;100407.00;;;;2086957;28;20213;-55
2021/09/29 04:07:01;;;;;;;1.20;0.97;;;;;21.10;100410.00;;;;2087845;28;20224;-54
2021/09/29 04:08:01;;;;;;;1.37;1.20;;;;;21.10;100402.00;;;;2093611;28;20200;-56
2021/09/29 04:09:01;;;;;;;2.30;1.10;;;;;21.10;100404.00;;;;2087341;28;20657;-57
2021/09/29 04:10:03;;;;;;;1.27;0.80;;;;;21.10;100404.00;;;;2090334;28;20212;-56
2021/09/29 04:11:07;;;;;;;1.40;1.20;;;;;21.10;100401.00;;;;2088296;28;20674;-56
2021/09/29 04:12:07;;;;;;;1.55;1.02;;;;;21.00;100405.00;;;;2086680;28;20220;-54
2021/09/29 04:13:07;;;;;;;1.50;1.40;;;;;21.10;100408.00;;;;2085809;28;20213;-55
2021/09/29 04:14:08;;;;;;;1.10;1.00;;;;;21.10;100408.00;;;;2086411;28;20689;-55
2021/09/29 04:15:10;;;;;;;2.30;1.40;;;;;21.10;100410.00;;;;2087004;28;20216;-56
2021/09/29 04:16:10;;;;;;;1.40;1.00;;;;;21.10;100410.00;;;;2086853;28;20215;-56
2021/09/29 04:17:10;;;;;;;1.90;1.13;;;;;21.00;100374.00;;;;2088410;28;20303;-57
2021/09/29 04:18:11;;;;;;;1.53;1.00;;;;;21.10;100403.00;;;;2088054;28;20708;-55
2021/09/29 04:19:11;;;;;;;1.37;1.10;;;;;21.10;100406.00;;;;2086357;28;20299;-55
2021/09/29 04:20:12;;;;;;;2.00;1.17;;;;;21.10;100409.00;;;;2087846;28;20304;-57
2021/09/29 04:21:12;;;;;;;1.70;1.23;;;;;21.10;100398.00;;;;2087945;28;21837;-57
2021/09/29 04:22:13;;;;;;;2.47;1.03;;;;;21.10;100405.00;;;;2086721;28;20232;-56
2021/09/29 04:23:15;;;;;;;1.50;1.30;;;;;21.00;100401.00;;;;2087312;28;20653;-54
2021/09/29 04:24:16;;;;;;;1.65;1.15;;;;;21.00;100399.00;;;;2087244;28;20728;-57
2021/09/29 04:25:16;;;;;;;1.37;1.00;;;;;21.10;100402.00;;;;2086656;28;20215;-57
2021/09/29 04:26:17;;;;;;;1.67;1.10;;;;;21.10;100397.00;;;;2088127;28;20212;-57
2021/09/29 04:27:17;;;;;;;2.03;1.10;;;;;21.10;100385.00;;;;2084449;28;20224;-55
2021/09/29 04:28:18;;;;;;;1.70;1.20;;;;;21.00;100405.00;;;;2087683;28;20239;-57
2021/09/29 04:29:20;;;;;;;1.92;1.20;;;;;21.00;100393.00;;;;2090510;28;20220;-56
2021/09/29 04:30:20;;;;;;;2.28;1.15;;;;;21.00;100402.00;;;;2095610;28;20215;-57
2021/09/29 04:31:21;;;;;;;1.10;0.80;;;;;21.00;100393.00;;;;2094785;28;20218;-56
2021/09/29 04:32:21;;;;;;;2.03;1.10;;;;;21.10;100393.00;;;;2095837;28;20216;-53
2021/09/29 04:33:22;;;;;;;1.20;1.10;;;;;21.10;100404.00;;;;2096340;28;20213;-57
2021/09/29 04:34:22;;;;;;;3.33;1.13;;;;;21.10;100398.00;;;;2094821;28;20208;-56
2021/09/29 04:35:23;;;;;;;2.33;1.70;;;;;21.10;100396.00;;;;2096093;28;20446;-56
2021/09/29 04:36:23;;;;;;;2.07;1.40;;;;;21.10;100393.00;;;;2096530;28;20216;-55
2021/09/29 04:37:24;;;;;;;1.90;1.20;;;;;21.10;100390.00;;;;2092497;28;20308;-55
2021/09/29 04:38:24;;;;;;;1.90;1.27;;;;;21.10;100397.00;;;;2091265;28;20291;-57
2021/09/29 04:39:24;;;;;;;2.00;1.30;;;;;21.10;100390.00;;;;2090648;28;20287;-57
2021/09/29 04:40:25;;;;;;;2.40;1.30;;;;;21.10;100388.00;;;;2091283;28;20223;-57
2021/09/29 04:41:25;;;;;;;1.73;1.33;;;;;21.00;100388.00;;;;2088423;28;20224;-56
2021/09/29 04:42:26;;;;;;;2.30;1.13;;;;;21.10;100386.00;;;;2087762;28;20678;-55
2021/09/29 04:43:26;;;;;;;1.83;1.00;;;;;21.10;100388.00;;;;2087914;28;20515;-57
2021/09/29 04:44:27;;;;;;;2.23;1.30;;;;;21.10;100384.00;;;;2088020;28;20639;-60
2021/09/29 04:45:28;;;;;;;1.90;1.33;;;;;21.10;100383.00;;;;2088333;28;20267;-58
2021/09/29 04:46:28;;;;;;;2.60;1.23;;;;;21.10;100394.00;;;;2087802;28;20294;-57
2021/09/29 04:47:29;;;;;;;1.27;1.03;;;;;21.10;100394.00;;;;2087964;28;20220;-55
2021/09/29 04:48:30;;;;;;;1.90;1.27;;;;;21.10;100395.00;;;;2088076;28;20213;-57
2021/09/29 04:49:30;;;;;;;1.52;1.10;;;;;21.10;100392.00;;;;2086263;28;20276;-56
2021/09/29 04:50:31;;;;;;;2.40;1.30;;;;;21.10;100401.00;;;;2087550;28;20236;-57
2021/09/29 04:51:33;;;;;;;1.83;1.33;;;;;21.10;100393.00;;;;2087172;28;20216;-57
2021/09/29 04:52:33;;;;;;;1.20;0.82;;;;;21.00;100398.00;;;;2087636;28;20233;-57
2021/09/29 04:53:34;;;;;;;1.33;1.07;;;;;21.00;100405.00;;;;2087800;28;20266;-56
2021/09/29 04:54:34;;;;;;;2.70;1.50;;;;;21.00;100394.00;;;;2082136;28;20213;-55
2021/09/29 04:55:35;;;;;;;2.00;1.50;;;;;21.00;100404.00;;;;2092609;28;20716;-57
2021/09/29 04:56:36;;;;;;;1.83;1.27;;;;;21.00;100401.00;;;;2095809;28;20215;-57
2021/09/29 04:57:37;;;;;;;1.40;1.20;;;;;21.10;100402.00;;;;2089464;28;20236;-57
2021/09/29 04:58:37;;;;;;;1.30;1.10;;;;;21.10;100397.00;;;;2087404;28;20223;-57
2021/09/29 04:59:38;;;;;;;2.73;1.30;;;;;21.10;100392.00;;;;2086597;28;20594;-57
2021/09/29 05:00:38;;;;;;;2.40;1.30;;;;;21.00;100403.00;;;;2086241;28;20228;-56
2021/09/29 05:01:42;;;;;;;1.67;1.30;;;;;21.00;100393.00;;;;2088089;28;20225;-55
2021/09/29 05:02:43;;;;;;;1.30;1.20;;;;;21.00;100390.00;;;;2087878;28;20377;-54
2021/09/29 05:03:44;;;;;;;1.33;1.00;;;;;21.00;100394.00;;;;2087860;28;20228;-58
2021/09/29 05:04:44;;;;;;;1.33;1.03;;;;;21.00;100377.00;;;;2088377;28;20749;-57